Terminal Aerodrome Forecast
Issued by NWS Mt. Holly, NJ

Home | Current Version | Previous Version | Text Only | Print | Product List | Glossary On
Versions: 1 2 3 4 5 6 7 8 9 10 11 12 13 14 15 16 17 18 19 20 21 22 23 24 25
000
FTUS41 KPHI 250100 AAB
TAFPHL
TAF AMD
KPHL 250111Z 2501/2606 20011KT P6SM OVC015 WS020/21045KT
      TEMPO 2501/2504 5SM -RA BR OVC006
     FM250800 27014G24KT P6SM -SHRA OVC010
     FM251200 29015G25KT P6SM SCT035
     FM251900 30009G15KT P6SM SKC
     FM252200 31008KT P6SM SKC=

USA.gov is the U.S. government's official web portal to all federal, state and local government web resources and services.